Time;durP1;ratioP1;P1;durP2;ratioP2;P2;SDS_P1;SDS_P2;PMS_P1;PMS_P2;Temp;Humidity;BMP_temperature;BMP_pressure;BME280_temperature;BME280_humidity;BME280_pressure;Samples;Min_cycle;Max_cycle;Signal;HPM_P1;HPM_P2
2023/05/26 00:00:38;;;;;;;2.60;1.00;;;;;;;21.29;36.35;101757.56;4489213;28;20100;-66
2023/05/26 00:02:49;;;;;;;3.10;1.15;;;;;;;21.26;36.17;101755.41;4487659;28;20578;-66
2023/05/26 00:05:01;;;;;;;2.30;1.20;;;;;;;21.27;36.22;101759.09;4502309;28;20121;-66
2023/05/26 00:07:12;;;;;;;2.95;1.27;;;;;;;21.25;36.07;101750.81;4489036;28;20030;-65
2023/05/26 00:09:23;;;;;;;2.65;1.17;;;;;;;21.24;36.16;101748.28;4503465;28;20041;-66
2023/05/26 00:11:34;;;;;;;2.65;1.08;;;;;;;21.22;35.93;101750.66;4487043;28;20129;-66
2023/05/26 00:13:44;;;;;;;3.20;1.20;;;;;;;21.29;35.90;101763.31;4488988;28;20042;-65
2023/05/26 00:15:55;;;;;;;2.47;1.10;;;;;;;21.26;36.15;101760.28;4487357;28;20223;-66
2023/05/26 00:18:05;;;;;;;1.90;1.10;;;;;;;21.24;36.30;101759.78;4489518;28;20144;-65
2023/05/26 00:20:16;;;;;;;2.30;0.98;;;;;;;21.28;35.90;101761.63;4488628;28;20069;-65
2023/05/26 00:22:27;;;;;;;2.55;1.10;;;;;;;21.26;35.84;101758.28;4487572;28;20103;-66
2023/05/26 00:24:37;;;;;;;2.63;0.93;;;;;;;21.26;35.91;101758.28;4490858;28;20735;-66
2023/05/26 00:26:47;;;;;;;2.65;1.10;;;;;;;21.28;35.80;101761.63;4486212;28;20053;-66
2023/05/26 00:28:59;;;;;;;2.78;1.10;;;;;;;21.22;35.87;101750.66;4502561;28;20030;-66
2023/05/26 00:31:11;;;;;;;2.20;1.02;;;;;;;21.24;35.84;101760.63;4485952;28;21060;-66
2023/05/26 00:33:22;;;;;;;1.73;1.10;;;;;;;21.24;35.43;101760.63;4488353;28;20038;-65
2023/05/26 00:35:32;;;;;;;3.00;1.17;;;;;;;21.25;35.35;101762.31;4487436;28;20586;-65
2023/05/26 00:37:42;;;;;;;2.70;1.17;;;;;;;21.24;35.23;101766.38;4491741;28;20526;-67
2023/05/26 00:39:53;;;;;;;3.05;1.35;;;;;;;21.26;35.46;101766.03;4485202;28;20121;-66
2023/05/26 00:42:03;;;;;;;1.75;1.00;;;;;;;21.19;34.87;101757.94;4497001;28;20261;-65
2023/05/26 00:44:14;;;;;;;1.95;0.90;;;;;;;21.24;35.08;101766.38;4491198;28;20049;-65
2023/05/26 00:46:25;;;;;;;2.42;1.05;;;;;;;21.23;35.37;101764.69;4486316;28;20026;-66
2023/05/26 00:48:35;;;;;;;2.45;1.10;;;;;;;21.21;35.48;101755.59;4485930;28;20391;-66
2023/05/26 00:50:46;;;;;;;2.90;1.00;;;;;;;21.24;35.30;101765.53;4495563;28;20026;-65
2023/05/26 00:52:57;;;;;;;2.17;0.82;;;;;;;21.21;35.33;101766.22;4487866;28;20093;-66
2023/05/26 00:55:08;;;;;;;1.98;1.20;;;;;;;21.20;35.65;101762.50;4487370;28;20511;-68
2023/05/26 00:57:20;;;;;;;2.38;1.10;;;;;;;21.21;35.42;101764.19;4490038;28;20117;-66
2023/05/26 00:59:31;;;;;;;2.10;1.10;;;;;;;21.18;35.94;101767.75;4502719;28;20022;-66
2023/05/26 01:01:42;;;;;;;1.98;1.10;;;;;;;21.19;35.72;101769.44;4488365;28;20041;-65
2023/05/26 01:03:54;;;;;;;2.35;0.90;;;;;;;21.20;35.54;101770.28;4488311;28;20073;-66
2023/05/26 01:06:05;;;;;;;1.98;1.10;;;;;;;21.23;35.62;101775.34;4503197;28;20152;-66
2023/05/26 01:08:15;;;;;;;1.90;1.00;;;;;;;21.19;35.86;101766.56;4489943;28;21278;-66
2023/05/26 01:10:31;;;;;;;3.63;1.20;;;;;;;21.19;36.12;101765.72;4506113;28;20041;-66
2023/05/26 01:12:53;;;;;;;2.53;1.30;;;;;;;21.21;35.71;101777.69;4490925;28;20576;-66
2023/05/26 01:15:09;;;;;;;1.70;0.82;;;;;;;21.21;35.79;101784.31;4488560;28;20037;-65
2023/05/26 01:17:34;;;;;;;1.88;1.08;;;;;;;21.20;35.93;101773.16;4491231;28;20088;-66
2023/05/26 01:19:47;;;;;;;1.98;0.95;;;;;;;21.21;35.67;101784.31;4491249;28;20518;-65
2023/05/26 01:22:18;;;;;;;2.05;0.95;;;;;;;21.20;35.37;101779.72;4490115;28;20042;-65
2023/05/26 01:24:51;;;;;;;2.80;1.00;;;;;;;21.14;35.55;101772.47;4490674;28;20044;-66
2023/05/26 01:27:09;;;;;;;3.55;1.25;;;;;;;21.20;35.86;101779.72;4490306;28;20039;-66
2023/05/26 01:29:22;;;;;;;1.65;0.95;;;;;;;21.19;35.29;101775.19;4491138;28;20145;-65
2023/05/26 01:31:39;;;;;;;2.17;0.90;;;;;;;21.19;35.48;101777.19;4490239;28;20066;-67
2023/05/26 01:33:49;;;;;;;3.03;1.10;;;;;;;21.18;35.39;101775.53;4492108;28;20073;-66
2023/05/26 01:38:48;;;;;;;2.17;1.00;;;;;;;21.19;35.71;101774.31;4490470;28;20042;-66
2023/05/26 01:41:13;;;;;;;2.42;1.10;;;;;;;21.16;35.20;101770.13;4490644;28;20027;-66
2023/05/26 01:43:41;;;;;;;1.67;1.08;;;;;;;21.18;35.21;101770.63;4489112;28;20617;-66
2023/05/26 01:46:00;;;;;;;1.67;1.10;;;;;;;21.17;35.23;101773.84;4504414;28;20088;-65
2023/05/26 01:48:14;;;;;;;2.33;1.00;;;;;;;21.16;35.44;101772.13;4490576;28;20050;-66
2023/05/26 01:50:32;;;;;;;2.13;0.98;;;;;;;21.14;35.19;101766.75;4490385;28;20042;-65
2023/05/26 01:52:44;;;;;;;2.80;1.00;;;;;;;21.13;35.11;101770.81;4490803;28;20042;-65
2023/05/26 01:55:01;;;;;;;2.80;1.25;;;;;;;21.16;35.58;101775.88;4489592;28;20060;-66
2023/05/26 01:57:15;;;;;;;2.00;1.10;;;;;;;21.17;35.12;101773.84;4488675;28;20110;-66
2023/05/26 01:59:26;;;;;;;1.65;0.95;;;;;;;21.16;35.39;101775.88;4489601;28;21391;-66
2023/05/26 02:01:37;;;;;;;2.95;1.20;;;;;;;21.13;35.37;101775.69;4493154;28;20046;-66
2023/05/26 02:03:48;;;;;;;2.85;1.00;;;;;;;21.13;35.41;101764.22;4493060;28;20037;-66
2023/05/26 02:33:39;;;;;;;2.40;1.00;;;;;;;21.12;35.87;101780.59;4490802;28;20133;-66
2023/05/26 02:53:04;;;;;;;2.38;1.10;;;;;;;21.11;36.13;101783.81;4486210;28;20629;-65
2023/05/26 02:55:14;;;;;;;1.88;1.02;;;;;;;21.07;36.43;101782.81;4490184;28;20030;-65
2023/05/26 02:57:25;;;;;;;3.38;1.40;;;;;;;21.05;36.52;101780.28;4498337;28;20088;-66
2023/05/26 02:59:35;;;;;;;1.83;1.00;;;;;;;21.08;36.69;101785.34;4491268;28;20038;-66
2023/05/26 03:01:46;;;;;;;2.72;1.10;;;;;;;21.07;36.68;101782.81;4487909;28;20097;-66
2023/05/26 03:03:56;;;;;;;3.05;1.20;;;;;;;21.07;36.38;101782.81;4489941;28;20061;-66
2023/05/26 03:06:07;;;;;;;2.28;1.17;;;;;;;21.07;36.38;101777.94;4487749;28;20030;-66
2023/05/26 03:08:18;;;;;;;2.58;1.35;;;;;;;21.09;36.50;101787.03;4487871;28;20124;-66
2023/05/26 03:10:28;;;;;;;1.48;1.00;;;;;;;21.06;36.55;101781.97;4487976;28;20232;-66
2023/05/26 03:12:39;;;;;;;2.55;1.30;;;;;;;21.06;36.76;101781.97;4487510;28;20034;-66
2023/05/26 03:14:50;;;;;;;2.20;1.23;;;;;;;21.02;36.82;101775.25;4489832;28;20038;-65
2023/05/26 03:17:01;;;;;;;2.65;1.10;;;;;;;21.08;36.61;101791.09;4490540;28;20031;-66
2023/05/26 03:19:11;;;;;;;2.75;1.10;;;;;;;21.05;36.74;101780.28;4489164;28;20867;-65
2023/05/26 03:21:22;;;;;;;2.17;1.02;;;;;;;21.05;36.83;101786.03;4488212;28;20069;-66
2023/05/26 03:23:33;;;;;;;2.50;1.23;;;;;;;21.07;36.85;101786.53;4489426;28;20485;-65
2023/05/26 03:25:45;;;;;;;2.80;1.30;;;;;;;21.07;36.95;101795.16;4488631;28;20041;-66
2023/05/26 03:27:57;;;;;;;2.60;1.25;;;;;;;21.06;36.81;101792.63;4488210;28;20042;-65
2023/05/26 03:30:08;;;;;;;2.42;1.10;;;;;;;21.03;36.82;101788.41;4504005;28;20462;-66
2023/05/26 03:32:20;;;;;;;2.78;1.30;;;;;;;21.02;36.46;101786.72;4486836;28;20118;-65
2023/05/26 03:34:31;;;;;;;2.35;1.20;;;;;;;21.03;36.88;101787.53;4489075;28;20109;-65
2023/05/26 03:36:45;;;;;;;1.98;1.23;;;;;;;21.06;36.42;101801.25;4496405;28;20022;-66
2023/05/26 03:39:03;;;;;;;3.30;1.17;;;;;;;21.06;36.64;101804.94;4487822;28;20037;-66
2023/05/26 03:41:14;;;;;;;3.50;1.23;;;;;;;21.01;36.51;101796.50;4487179;28;20041;-66
2023/05/26 03:43:35;;;;;;;2.38;1.23;;;;;;;21.05;36.35;101803.25;4487598;28;20042;-66
2023/05/26 03:45:46;;;;;;;2.35;1.10;;;;;;;21.02;36.49;101795.31;4487272;28;20264;-66
2023/05/26 03:47:57;;;;;;;3.35;1.45;;;;;;;21.04;36.22;101807.28;4504949;28;20798;-65
2023/05/26 03:50:07;;;;;;;2.53;1.13;;;;;;;20.97;36.75;101786.03;4497095;28;20053;-65
2023/05/26 03:52:20;;;;;;;2.83;1.15;;;;;;;21.01;36.53;101802.22;4488213;28;20038;-66
2023/05/26 03:54:31;;;;;;;2.35;1.10;;;;;;;21.01;36.57;101807.97;4490513;28;20030;-66
2023/05/26 03:56:41;;;;;;;2.55;1.00;;;;;;;21.01;36.77;101807.97;4487381;28;20138;-66
2023/05/26 03:58:51;;;;;;;2.33;1.20;;;;;;;21.02;36.69;101806.81;4486439;28;20035;-66
2023/05/26 04:01:03;;;;;;;2.17;1.13;;;;;;;21.04;36.44;101813.03;4503338;28;20099;-65
2023/05/26 04:03:14;;;;;;;3.40;1.40;;;;;;;21.02;36.45;101806.81;4489288;28;20046;-66
2023/05/26 04:05:25;;;;;;;2.60;1.30;;;;;;;21.02;36.22;101809.69;4487848;28;20030;-66
2023/05/26 04:07:36;;;;;;;1.77;1.08;;;;;;;21.02;36.46;101812.56;4487786;28;20131;-65
2023/05/26 04:09:48;;;;;;;2.72;1.30;;;;;;;20.89;36.22;101798.34;4488655;28;20129;-66
2023/05/26 04:12:00;;;;;;;3.08;1.15;;;;;;;20.98;36.20;101811.53;4487407;28;20474;-65
2023/05/26 04:14:11;;;;;;;2.42;1.27;;;;;;;21.03;36.35;101817.09;4480091;28;20027;-65
2023/05/26 04:16:22;;;;;;;2.63;1.17;;;;;;;21.01;36.37;101819.47;4488675;28;20030;-65
2023/05/26 04:18:34;;;;;;;2.67;1.15;;;;;;;21.01;36.38;101825.19;4488098;28;20062;-65
2023/05/26 04:20:47;;;;;;;4.30;1.25;;;;;;;20.99;36.27;101826.75;4488482;28;20041;-66
2023/05/26 04:22:59;;;;;;;2.40;1.20;;;;;;;21.01;36.22;101825.19;4488191;28;20963;-66
2023/05/26 04:25:10;;;;;;;2.28;1.10;;;;;;;21.01;36.26;101833.81;4488466;28;20044;-66
2023/05/26 04:27:42;;;;;;;3.25;1.50;;;;;;;20.96;36.13;101816.78;4486738;28;20042;-65
2023/05/26 04:30:11;;;;;;;2.40;1.20;;;;;;;20.97;36.15;101827.06;4487910;28;20047;-65
2023/05/26 04:32:33;;;;;;;2.83;1.20;;;;;;;20.97;36.68;101829.94;4486978;28;21087;-65
2023/05/26 04:35:03;;;;;;;2.88;1.30;;;;;;;20.98;36.29;101827.94;4487880;28;20088;-66
2023/05/26 04:37:20;;;;;;;2.17;1.17;;;;;;;20.97;36.64;101829.09;4486316;28;20468;-66
2023/05/26 04:39:31;;;;;;;2.38;1.30;;;;;;;20.96;36.79;101824.53;4501142;28;20109;-65
2023/05/26 04:41:43;;;;;;;2.22;1.10;;;;;;;20.98;36.43;101834.50;4504196;28;20042;-66
2023/05/26 04:43:54;;;;;;;4.65;1.30;;;;;;;20.93;36.68;101823.16;4490455;28;20042;-66
2023/05/26 04:46:04;;;;;;;3.00;1.30;;;;;;;20.97;36.96;101835.69;4491073;28;20483;-66
2023/05/26 04:48:16;;;;;;;2.75;1.13;;;;;;;20.97;36.61;101827.06;4488467;28;20029;-65
2023/05/26 04:50:26;;;;;;;2.67;1.38;;;;;;;20.97;36.60;101841.44;4488583;28;20073;-65
2023/05/26 04:52:37;;;;;;;2.40;1.23;;;;;;;20.98;36.67;101843.09;4506600;28;20076;-65
2023/05/26 04:54:47;;;;;;;2.10;1.10;;;;;;;20.98;36.67;101845.97;4491884;28;20034;-67
2023/05/26 04:56:58;;;;;;;2.90;1.33;;;;;;;20.96;36.84;101845.50;4489167;28;20536;-66
2023/05/26 04:59:23;;;;;;;3.13;1.30;;;;;;;20.97;37.16;101837.72;4488421;28;20133;-66
2023/05/26 05:01:33;;;;;;;2.97;1.17;;;;;;;20.96;36.79;101844.59;4492171;28;20046;-66
2023/05/26 05:04:19;;;;;;;2.45;1.02;;;;;;;20.98;36.79;101845.16;4487626;28;20108;-65
2023/05/26 05:06:35;;;;;;;3.63;1.33;;;;;;;20.93;36.79;101840.38;4486510;28;20050;-65
2023/05/26 05:08:46;;;;;;;2.70;1.30;;;;;;;20.95;36.81;101846.63;4498847;28;20013;-66
2023/05/26 05:10:56;;;;;;;2.60;1.20;;;;;;;20.91;36.72;101836.16;4490499;28;20062;-65
2023/05/26 05:13:07;;;;;;;2.92;1.30;;;;;;;20.97;36.33;101846.31;4491894;28;20571;-65
2023/05/26 05:15:19;;;;;;;3.28;1.58;;;;;;;20.92;36.99;101838.69;4493063;28;20038;-66
2023/05/26 05:17:29;;;;;;;4.15;1.40;;;;;;;20.92;36.73;101844.44;4489146;28;20034;-66
2023/05/26 05:19:40;;;;;;;3.38;1.23;;;;;;;20.93;37.13;101845.28;4488720;28;20049;-65
2023/05/26 05:21:51;;;;;;;2.80;1.27;;;;;;;20.94;36.73;101847.81;4487907;28;20049;-65
2023/05/26 05:24:01;;;;;;;2.35;1.15;;;;;;;20.96;36.83;101856.97;4489290;28;21070;-66
2023/05/26 05:26:12;;;;;;;3.03;1.20;;;;;;;20.88;37.23;101849.19;4472955;28;20467;-66
2023/05/26 05:28:24;;;;;;;3.05;1.15;;;;;;;20.89;37.60;101844.28;4479353;28;20046;-66
2023/05/26 05:30:52;;;;;;;3.00;1.10;;;;;;;20.94;36.94;101842.09;4490958;28;20061;-66
2023/05/26 05:33:02;;;;;;;2.92;1.25;;;;;;;20.94;36.85;101855.56;4487869;28;20069;-66
2023/05/26 05:35:13;;;;;;;3.35;1.35;;;;;;;20.94;36.94;101864.19;4491255;28;20022;-67
2023/05/26 05:37:23;;;;;;;3.25;1.30;;;;;;;20.89;36.90;101856.59;4492592;28;21077;-66
2023/05/26 05:39:34;;;;;;;3.05;1.40;;;;;;;20.92;37.12;101860.81;4491041;28;20621;-67
2023/05/26 05:41:45;;;;;;;3.53;1.25;;;;;;;20.93;37.30;101857.59;4493205;28;20030;-66
2023/05/26 05:43:57;;;;;;;2.70;0.98;;;;;;;20.91;37.36;101868.59;4498336;28;20030;-66
2023/05/26 05:46:09;;;;;;;3.60;1.50;;;;;;;20.92;37.00;101867.41;4489636;28;20039;-65
2023/05/26 05:48:39;;;;;;;3.20;1.25;;;;;;;20.92;37.12;101873.13;4505288;28;20022;-65
2023/05/26 05:51:05;;;;;;;2.97;1.10;;;;;;;20.93;36.94;101871.94;4490119;28;20038;-65
2023/05/26 05:53:15;;;;;;;4.35;1.40;;;;;;;20.89;36.93;101868.09;4489362;28;20030;-65
2023/05/26 05:55:26;;;;;;;2.42;1.20;;;;;;;20.92;37.25;101873.13;4490647;28;20410;-65
2023/05/26 05:57:36;;;;;;;4.45;1.40;;;;;;;20.92;37.55;101870.28;4489539;28;20034;-66
2023/05/26 05:59:47;;;;;;;3.05;1.42;;;;;;;20.91;37.27;101877.19;4490024;28;20703;-65
2023/05/26 06:01:57;;;;;;;4.05;1.30;;;;;;;20.89;37.08;101875.84;4490384;28;20050;-65
2023/05/26 06:04:09;;;;;;;3.17;1.40;;;;;;;20.90;37.03;101874.69;4477063;28;20068;-67
2023/05/26 06:06:21;;;;;;;3.05;1.40;;;;;;;20.89;37.15;101872.97;4488416;28;20042;-66
2023/05/26 06:08:31;;;;;;;2.88;1.33;;;;;;;20.90;37.01;101880.41;4498507;28;20049;-66
2023/05/26 06:10:42;;;;;;;2.78;1.20;;;;;;;20.92;37.14;101881.75;4488051;28;20034;-67
2023/05/26 06:12:53;;;;;;;2.92;1.20;;;;;;;20.89;36.71;101885.31;4491099;28;20065;-66
2023/05/26 06:15:04;;;;;;;3.60;1.30;;;;;;;20.89;37.00;101885.31;4487917;28;20465;-66
2023/05/26 06:17:14;;;;;;;2.15;1.10;;;;;;;20.90;36.97;101884.09;4488970;28;20078;-67
2023/05/26 06:19:25;;;;;;;3.13;1.20;;;;;;;20.89;36.96;101879.56;4505653;28;20116;-66
2023/05/26 06:21:35;;;;;;;2.97;1.38;;;;;;;20.91;37.21;101887.81;4493466;28;20042;-67
2023/05/26 06:23:49;;;;;;;3.45;1.38;;;;;;;20.87;37.57;101884.78;4497948;28;20034;-66
2023/05/26 06:25:59;;;;;;;3.33;1.27;;;;;;;20.88;37.44;101888.50;4493432;28;20683;-67
2023/05/26 06:28:10;;;;;;;2.38;1.20;;;;;;;20.88;37.77;101892.22;4487783;28;20034;-65
2023/05/26 06:30:21;;;;;;;2.67;1.33;;;;;;;20.91;37.44;101893.56;4487814;28;20029;-66
2023/05/26 06:32:38;;;;;;;3.00;1.30;;;;;;;20.87;38.12;101886.84;4496182;28;20084;-65
2023/05/26 06:34:49;;;;;;;2.35;1.30;;;;;;;20.87;37.77;101890.53;4506128;28;20600;-66
2023/05/26 06:37:00;;;;;;;2.80;1.40;;;;;;;20.90;38.10;101904.19;4488407;28;20443;-65
2023/05/26 06:39:10;;;;;;;4.63;1.60;;;;;;;20.89;38.44;101896.78;4496975;28;20077;-66
2023/05/26 06:41:21;;;;;;;3.08;1.20;;;;;;;20.86;38.12;101897.47;4488495;28;20033;-65
2023/05/26 06:43:32;;;;;;;2.88;1.27;;;;;;;20.88;38.11;101900.84;4488491;28;20853;-65
2023/05/26 06:45:43;;;;;;;3.03;1.20;;;;;;;20.88;37.76;101900.84;4488863;28;20817;-65
2023/05/26 06:47:53;;;;;;;2.75;1.23;;;;;;;20.76;37.96;101884.28;4481172;28;20069;-65
2023/05/26 06:50:08;;;;;;;2.15;1.25;;;;;;;20.87;37.28;101910.63;4498253;28;20030;-68
2023/05/26 06:52:21;;;;;;;2.67;1.30;;;;;;;20.86;37.39;101905.22;4487478;28;20113;-65
2023/05/26 06:54:31;;;;;;;4.45;1.70;;;;;;;20.90;37.30;101906.25;4505804;28;20693;-65
2023/05/26 06:56:41;;;;;;;2.95;1.30;;;;;;;20.85;37.70;101903.53;4487805;28;20041;-66
2023/05/26 06:58:52;;;;;;;2.53;1.35;;;;;;;20.89;37.36;101916.00;4492651;28;20126;-65
2023/05/26 07:01:05;;;;;;;2.92;1.60;;;;;;;20.84;37.47;101899.81;4503368;28;20033;-65
2023/05/26 07:03:19;;;;;;;3.63;1.40;;;;;;;20.89;37.56;101907.41;4488049;28;20038;-65
2023/05/26 07:05:34;;;;;;;3.25;1.23;;;;;;;20.80;37.30;101902.50;4473170;28;20037;-65
2023/05/26 07:07:44;;;;;;;2.15;1.35;;;;;;;20.86;37.41;101913.81;4497444;28;20057;-64
2023/05/26 07:09:55;;;;;;;2.42;1.23;;;;;;;20.87;37.46;101918.41;4489043;28;20022;-65
2023/05/26 07:12:06;;;;;;;3.58;1.40;;;;;;;20.86;37.94;101923.28;4482236;28;20028;-65
2023/05/26 07:14:37;;;;;;;2.60;1.30;;;;;;;20.75;37.88;101901.84;4488822;28;20577;-64
2023/05/26 07:16:48;;;;;;;3.20;1.30;;;;;;;20.87;37.73;101922.09;4490833;28;20110;-65
2023/05/26 07:18:58;;;;;;;3.83;1.60;;;;;;;20.86;38.04;101929.03;4485799;28;20467;-64
2023/05/26 07:21:09;;;;;;;2.65;1.20;;;;;;;20.85;37.94;101924.47;4486841;28;20038;-65
2023/05/26 07:23:20;;;;;;;2.83;1.30;;;;;;;20.83;37.99;101933.41;4488853;28;20105;-64
2023/05/26 07:25:31;;;;;;;3.65;1.40;;;;;;;20.83;37.36;101929.69;4489532;28;20030;-65
2023/05/26 07:27:43;;;;;;;3.33;1.60;;;;;;;20.87;37.26;101932.75;4486544;28;20062;-65
2023/05/26 07:29:54;;;;;;;2.95;1.23;;;;;;;20.85;37.89;101926.50;4487428;28;20117;-65
2023/05/26 07:32:04;;;;;;;4.38;1.50;;;;;;;20.81;37.26;101923.44;4504452;28;20037;-65
2023/05/26 07:34:15;;;;;;;3.00;1.40;;;;;;;20.84;37.18;101922.78;4489407;28;20085;-64
2023/05/26 07:36:25;;;;;;;2.90;1.17;;;;;;;20.86;37.63;101931.91;4488320;28;20033;-64
2023/05/26 07:38:36;;;;;;;3.40;1.48;;;;;;;20.86;37.64;101928.16;4487807;28;20092;-64
2023/05/26 07:40:46;;;;;;;2.33;1.20;;;;;;;20.87;37.47;101933.56;4488358;28;20058;-65
2023/05/26 07:42:57;;;;;;;3.10;1.17;;;;;;;20.83;37.64;101935.44;4488278;28;20517;-64
2023/05/26 07:45:08;;;;;;;3.50;1.40;;;;;;;20.83;37.79;101925.97;4489086;28;20058;-65
2023/05/26 07:47:18;;;;;;;2.88;1.33;;;;;;;20.84;38.06;101928.50;4488881;28;20030;-65
2023/05/26 07:49:29;;;;;;;2.85;1.30;;;;;;;20.87;38.03;101936.44;4495646;28;20376;-64
2023/05/26 07:51:39;;;;;;;3.88;1.33;;;;;;;20.85;38.02;101938.84;4497874;28;20041;-64
2023/05/26 07:53:49;;;;;;;2.78;1.45;;;;;;;20.85;37.96;101930.22;4488603;28;20414;-65
2023/05/26 07:56:00;;;;;;;2.65;1.40;;;;;;;20.86;37.87;101933.91;4497229;28;20038;-64
2023/05/26 07:58:10;;;;;;;2.72;1.30;;;;;;;20.82;38.19;101933.72;4489059;28;20027;-65
2023/05/26 08:00:21;;;;;;;2.85;1.20;;;;;;;20.87;38.10;101929.88;4487998;28;20558;-65
2023/05/26 08:02:32;;;;;;;2.83;1.48;;;;;;;20.86;38.15;101931.03;4488839;28;20050;-64
2023/05/26 08:04:42;;;;;;;3.10;1.40;;;;;;;20.86;37.46;101925.31;4490796;28;21112;-65
2023/05/26 08:06:53;;;;;;;3.67;1.33;;;;;;;20.83;38.20;101925.97;4487050;28;20046;-65
2023/05/26 08:09:03;;;;;;;2.65;1.20;;;;;;;20.87;37.75;101932.75;4497864;28;20025;-65
2023/05/26 08:11:14;;;;;;;2.47;1.30;;;;;;;20.79;37.64;101920.91;4487521;28;20532;-65
2023/05/26 08:13:24;;;;;;;2.50;1.23;;;;;;;20.86;37.83;101929.03;4489619;28;21057;-65
2023/05/26 08:15:35;;;;;;;3.75;1.40;;;;;;;20.86;38.03;101926.16;4488908;28;20034;-65
2023/05/26 08:17:45;;;;;;;3.95;1.50;;;;;;;20.83;38.00;101921.91;4485970;28;20481;-65
2023/05/26 08:19:56;;;;;;;2.88;1.30;;;;;;;20.85;38.51;101923.63;4487376;28;20042;-65
2023/05/26 08:22:06;;;;;;;2.90;1.30;;;;;;;20.82;38.23;101913.66;4497154;28;20046;-65
2023/05/26 08:24:16;;;;;;;3.47;1.45;;;;;;;20.85;38.82;101918.75;4488390;28;20038;-65
2023/05/26 08:26:27;;;;;;;4.25;1.40;;;;;;;20.80;38.63;101911.13;4489410;28;20038;-65
2023/05/26 08:28:37;;;;;;;2.40;1.20;;;;;;;20.71;38.47;101900.81;4488559;28;20122;-65
2023/05/26 08:30:48;;;;;;;2.80;1.42;;;;;;;20.85;38.59;101918.75;4489701;28;20070;-65
2023/05/26 08:32:58;;;;;;;2.70;1.10;;;;;;;20.83;38.06;101921.09;4488758;28;20033;-65
2023/05/26 08:35:09;;;;;;;3.35;1.40;;;;;;;20.83;37.95;101918.22;4489192;28;20041;-65
2023/05/26 08:37:19;;;;;;;4.05;1.30;;;;;;;20.81;38.14;101909.09;4487889;28;20550;-65
2023/05/26 08:39:30;;;;;;;2.85;1.20;;;;;;;20.83;37.92;101921.91;4496518;28;20066;-65
2023/05/26 08:41:48;;;;;;;3.08;1.27;;;;;;;20.85;37.61;101918.75;4489035;28;20029;-64
2023/05/26 08:44:03;;;;;;;4.68;1.50;;;;;;;20.87;37.42;101922.09;4489622;28;20041;-65
2023/05/26 08:46:15;;;;;;;3.42;1.40;;;;;;;20.86;36.74;101925.31;4487955;28;20046;-65
2023/05/26 08:48:25;;;;;;;2.25;1.10;;;;;;;20.85;37.23;101915.00;4487489;28;20395;-65
2023/05/26 08:50:36;;;;;;;2.75;1.30;;;;;;;20.85;37.97;101907.25;4496327;28;20049;-65
2023/05/26 08:52:48;;;;;;;2.90;1.08;;;;;;;20.83;37.94;101921.91;4488931;28;20030;-65
2023/05/26 08:54:58;;;;;;;3.13;1.30;;;;;;;20.85;38.41;101909.28;4489488;28;20031;-65
2023/05/26 08:57:11;;;;;;;3.72;1.55;;;;;;;20.87;38.34;101910.63;4489220;28;20046;-65
2023/05/26 08:59:22;;;;;;;3.47;1.30;;;;;;;20.85;38.15;101917.88;4489432;28;20044;-65
2023/05/26 09:01:32;;;;;;;3.35;1.35;;;;;;;20.69;37.48;101886.81;4489155;28;20031;-65
2023/05/26 09:03:43;;;;;;;3.97;1.50;;;;;;;20.87;37.93;101918.41;4488176;28;20034;-65
2023/05/26 09:05:53;;;;;;;3.28;1.52;;;;;;;20.86;37.49;101920.41;4488187;28;20113;-65
2023/05/26 09:08:04;;;;;;;2.35;1.10;;;;;;;20.88;38.10;101922.94;4487813;28;20121;-65
2023/05/26 09:10:27;;;;;;;2.97;1.17;;;;;;;20.82;37.83;101919.38;4488239;28;20675;-65
2023/05/26 09:12:37;;;;;;;3.85;1.50;;;;;;;20.70;37.35;101890.53;4486990;28;20941;-65
2023/05/26 09:14:48;;;;;;;3.53;1.50;;;;;;;20.85;37.25;101917.88;4488296;28;20034;-65
2023/05/26 09:16:59;;;;;;;3.47;1.42;;;;;;;20.86;37.79;101914.69;4488514;28;20045;-65
2023/05/26 09:19:18;;;;;;;3.80;1.40;;;;;;;20.87;37.68;101927.84;4488026;28;20038;-65
2023/05/26 09:21:30;;;;;;;3.75;1.42;;;;;;;20.87;38.34;101922.09;4488696;28;20023;-65
2023/05/26 09:23:46;;;;;;;3.90;1.50;;;;;;;20.88;38.02;101918.06;4487977;28;20198;-65
2023/05/26 09:25:57;;;;;;;3.45;1.38;;;;;;;20.86;37.53;101917.53;4488004;28;20125;-65
2023/05/26 09:28:14;;;;;;;3.28;1.40;;;;;;;20.87;39.21;101922.09;4490795;28;20109;-65
2023/05/26 09:30:29;;;;;;;3.25;1.40;;;;;;;20.88;38.36;101922.94;4490767;28;20038;-64
2023/05/26 09:32:40;;;;;;;2.85;1.30;;;;;;;20.86;37.96;101922.44;4490201;28;20027;-65
2023/05/26 09:34:51;;;;;;;4.07;1.20;;;;;;;20.90;38.28;101937.81;4490108;28;20042;-65
2023/05/26 09:37:01;;;;;;;2.88;1.35;;;;;;;20.87;38.00;101927.00;4490374;28;21008;-65
2023/05/26 09:39:13;;;;;;;3.70;1.20;;;;;;;20.90;38.04;101930.03;4490611;28;20069;-65
2023/05/26 09:41:35;;;;;;;4.10;1.33;;;;;;;20.88;38.33;101922.94;4491877;28;20054;-65
2023/05/26 09:43:50;;;;;;;2.58;1.30;;;;;;;20.91;38.02;101923.13;4504980;28;20080;-65
2023/05/26 09:46:06;;;;;;;2.50;1.33;;;;;;;20.91;38.64;101925.13;4491870;28;20034;-65
2023/05/26 09:48:16;;;;;;;2.95;1.20;;;;;;;20.92;39.03;101933.41;4492009;28;20149;-65
2023/05/26 09:50:30;;;;;;;2.60;1.30;;;;;;;20.89;38.75;101914.00;4491731;28;20038;-65
2023/05/26 09:52:41;;;;;;;2.97;1.35;;;;;;;20.94;38.77;101927.34;4490981;28;21234;-65
2023/05/26 09:54:52;;;;;;;2.25;1.00;;;;;;;20.95;38.45;101929.84;4499019;28;20038;-65
2023/05/26 09:57:10;;;;;;;2.33;1.27;;;;;;;20.95;39.80;101929.84;4490210;28;20045;-65
2023/05/26 09:59:23;;;;;;;3.30;1.58;;;;;;;20.95;38.91;101918.38;4490860;28;20026;-65
2023/05/26 10:01:37;;;;;;;3.40;1.50;;;;;;;20.94;39.00;101928.19;4491598;28;20046;-65
2023/05/26 10:03:49;;;;;;;3.38;1.30;;;;;;;20.93;38.90;101926.47;4491377;28;20034;-65
2023/05/26 10:06:00;;;;;;;3.25;1.40;;;;;;;20.93;39.28;101919.91;4492167;28;20966;-65
2023/05/26 10:08:14;;;;;;;3.58;1.40;;;;;;;20.93;38.87;101915.00;4490158;28;21066;-65
2023/05/26 10:10:25;;;;;;;3.58;1.17;;;;;;;20.92;38.54;101915.34;4492662;28;20085;-65
2023/05/26 10:12:36;;;;;;;3.65;1.60;;;;;;;20.92;38.94;101919.06;4490602;28;20034;-64
2023/05/26 10:14:46;;;;;;;3.08;1.33;;;;;;;20.96;38.18;101920.13;4492861;28;20038;-65
2023/05/26 10:16:57;;;;;;;2.97;1.52;;;;;;;20.90;39.60;101917.72;4490729;28;20126;-65
2023/05/26 10:19:08;;;;;;;3.53;1.20;;;;;;;20.96;39.55;101924.97;4507310;28;20045;-65
2023/05/26 10:21:23;;;;;;;3.78;1.50;;;;;;;20.92;39.14;101919.06;4491240;28;20134;-65
2023/05/26 10:23:44;;;;;;;2.78;1.20;;;;;;;20.91;39.10;101916.53;4490022;28;20047;-65
2023/05/26 10:26:09;;;;;;;4.65;1.95;;;;;;;20.90;39.44;101909.94;4491774;28;20029;-65
2023/05/26 10:28:42;;;;;;;3.00;1.38;;;;;;;20.99;39.10;101930.94;4490262;28;20660;-65
2023/05/26 10:31:00;;;;;;;3.90;1.67;;;;;;;21.00;38.84;101924.00;4491221;28;20620;-65
2023/05/26 10:33:12;;;;;;;2.53;1.20;;;;;;;20.99;38.71;101912.84;4490579;28;20065;-65
2023/05/26 10:35:27;;;;;;;3.08;1.45;;;;;;;21.01;38.28;101921.97;4489166;28;20022;-67
2023/05/26 10:37:37;;;;;;;3.55;1.38;;;;;;;20.99;39.55;101918.59;4489115;28;20101;-67
2023/05/26 10:39:48;;;;;;;4.78;1.63;;;;;;;20.96;38.79;101914.38;4489795;28;20052;-66
2023/05/26 10:42:39;;;;;;;3.97;1.58;;;;;;;21.00;39.11;101912.50;4490085;28;20050;-65
2023/05/26 10:44:54;;;;;;;4.13;1.40;;;;;;;21.01;40.10;101919.91;4490301;28;20037;-66
2023/05/26 10:47:05;;;;;;;3.97;1.60;;;;;;;20.94;39.73;101904.38;4490571;28;20046;-65
2023/05/26 10:49:23;;;;;;;3.25;1.40;;;;;;;21.01;39.03;101910.50;4490625;28;20030;-65
2023/05/26 10:51:48;;;;;;;3.30;1.40;;;;;;;21.03;39.73;101910.97;4490323;28;20042;-65
2023/05/26 10:54:15;;;;;;;3.22;1.40;;;;;;;21.00;40.70;101898.16;4489651;28;20118;-65
2023/05/26 10:56:41;;;;;;;3.42;1.60;;;;;;;21.01;40.31;101902.69;4491007;28;20504;-65
2023/05/26 10:58:57;;;;;;;4.40;1.88;;;;;;;21.03;39.30;101908.97;4489499;28;20060;-65
2023/05/26 11:01:18;;;;;;;2.85;1.55;;;;;;;21.03;40.16;101906.09;4499048;28;20077;-65
2023/05/26 11:03:40;;;;;;;2.60;1.20;;;;;;;21.03;40.27;101903.22;4475374;28;20035;-65
2023/05/26 11:05:55;;;;;;;3.47;1.48;;;;;;;20.99;40.97;101905.09;4488965;28;20062;-65